CDT,Max TemperatureF,Mean TemperatureF,Min TemperatureF,Max Dew PointF,MeanDew PointF,Min DewpointF,Max Humidity, Mean Humidity, Min Humidity, Max Sea Level PressureIn, Mean Sea Level PressureIn, Min Sea Level PressureIn, Max VisibilityMiles, Mean VisibilityMiles, Min VisibilityMiles, Max Wind SpeedMPH, Mean Wind SpeedMPH, Max Gust SpeedMPH,PrecipitationIn, CloudCover, Events, WindDirDegrees
2013-7-1,88,78,67,56,49,44,66,37,22,30.11,30.05,29.99,10,8,2,20,7,28,0.00,1,,40
2013-7-2,89,74,60,51,44,38,67,36,16,30.16,30.09,30.03,10,9,5,16,3,26,0.00,0,,44
2013-7-3,92,76,61,49,44,37,60,32,15,30.09,30.03,29.94,10,10,5,10,4,16,0.00,1,,132
2013-7-4,97,84,72,56,47,41,53,29,15,30.01,29.95,29.87,10,10,7,14,7,17,0.00,2,Rain,153
2013-7-5,98,85,72,56,49,41,57,30,14,29.99,29.93,29.84,10,10,10,16,11,30,0.00,0,,164
2013-7-6,99,87,76,62,54,48,59,34,19,29.96,29.91,29.84,10,10,10,17,11,24,0.00,0,,161
2013-7-7,98,88,77,65,58,52,60,38,21,30.01,29.96,29.91,10,10,10,16,9,40,0.00,1,,145
2013-7-8,99,88,77,69,64,58,75,47,25,30.09,30.03,29.96,10,10,7,18,8,24,0.00,1,,167
2013-7-9,100,88,77,68,62,55,70,43,22,30.13,30.06,29.98,10,10,10,16,11,23,0.00,1,,192
2013-7-10,102,90,79,67,60,54,62,37,20,30.09,30.02,29.91,10,10,10,13,8,18,0.00,1,,189
2013-7-11,101,88,77,75,63,56,71,46,24,30.01,29.96,29.88,10,10,1,25,7,44,0.04,1,Rain-Thunderstorm,173
2013-7-12,102,88,75,67,61,55,77,42,21,29.98,29.93,29.88,10,10,7,15,7,22,0.02,1,,153
2013-7-13,104,88,74,64,57,51,64,35,17,30.01,29.94,29.87,10,10,7,14,6,21,0.01,1,,145
2013-7-14,87,78,66,67,60,55,96,58,35,30.03,29.96,29.88,10,9,2,25,11,32,0.01,2,Rain-Thunderstorm,109
2013-7-15,73,69,66,71,68,65,98,96,88,30.08,30.04,30.00,10,6,2,14,5,,0.02,8,Rain,59
2013-7-16,82,76,69,74,71,69,99,90,66,30.20,30.13,30.06,10,8,2,15,6,29,0.02,6,Rain-Thunderstorm,106
2013-7-17,85,78,71,72,70,68,97,84,58,30.25,30.21,30.17,10,10,5,22,7,29,0.02,4,Rain-Thunderstorm,101
2013-7-18,91,81,71,71,66,58,98,67,34,30.22,30.15,30.04,10,10,7,15,5,16,0.01,2,,147
2013-7-19,95,82,71,68,64,59,82,55,32,30.09,30.02,29.93,10,10,10,12,6,,0.01,1,,187
2013-7-20,95,84,73,69,66,59,83,56,30,30.00,29.94,29.85,10,10,10,14,9,22,0.00,1,,179
2013-7-21,96,86,75,68,65,59,74,52,29,29.95,29.91,29.84,10,10,10,14,8,23,0.01,1,,191
2013-7-22,96,86,77,72,68,62,83,56,35,29.98,29.93,29.87,10,10,10,16,9,21,0.00,1,,188
2013-7-23,97,88,79,72,69,66,75,54,37,29.98,29.92,29.84,10,10,7,16,10,23,0.00,1,,185
2013-7-24,97,87,77,70,66,62,67,50,34,30.04,29.94,29.88,10,10,10,20,8,30,0.00,1,,159
2013-7-25,95,86,77,72,68,62,77,58,39,30.11,30.02,29.98,10,10,10,21,8,26,0.00,1,Thunderstorm,125
2013-7-26,97,88,79,71,66,64,65,52,34,30.05,29.98,29.95,10,10,10,18,10,30,0.00,2,Rain,252
2013-7-27,91,81,72,70,62,50,91,57,25,30.08,30.02,29.93,10,10,10,10,6,16,0.00,2,,64
2013-7-28,93,80,67,67,62,58,93,56,31,30.00,29.95,29.87,10,10,7,14,7,18,0.00,1,,148
2013-7-29,98,88,80,71,66,57,70,49,30,29.98,29.94,29.89,10,10,7,17,11,23,0.00,2,,169
2013-7-30,97,89,81,70,66,60,67,48,31,30.06,30.00,29.94,10,10,10,17,12,25,0.00,0,Rain,188
2013-7-31,101,90,78,71,65,62,68,45,28,30.09,30.02,29.95,10,10,10,16,8,21,0.00,1,,195